Carbondale, Texas
Current Conditions -  °F | °C
As of 11:53 PM on Tuesday 21 Oct 2014 (Local Time) from KTXK Reporting Station
Broken Clouds Broken Clouds  
Wind Chill: 62°   Ceiling: 4900
Heat Index: 62°   Visibility: 10mi
Dew Point: 59°   Wind: 0mph
Humidity: 90%   Direction: NA
Pressure: 30.08"   Gusts: NA
Location:  33.3608°N, 94.4651°W
Report Text: KTXK 220453Z AUTO 00000KT 10SM BKN049 17/15 A3008 RMK AO2 SLP183 T01670150
Loading
Personal Weather Stations






























Interactive Weather Map
Tropical Storm Tracking
New forecast layout! Learn more

10-Day Weather Forecast

Advertisements
Track Severe Weather on mobile